Time;durP1;ratioP1;P1;durP2;ratioP2;P2;SDS_P1;SDS_P2;PMS_P1;PMS_P2;Temp;Humidity;BMP_temperature;BMP_pressure;BME280_temperature;BME280_humidity;BME280_pressure;Samples;Min_cycle;Max_cycle;Signal;HPM_P1;HPM_P2
2022/12/16 00:01:52;;;;;;;;;;;-4.20;99.90;;;;;;5012140;28;19920;-63
2022/12/16 00:04:17;;;;;;;;;;;-4.30;99.90;;;;;;5026475;28;19917;-63
2022/12/16 00:06:44;;;;;;;;;;;-4.30;99.90;;;;;;5028779;28;20346;-64
2022/12/16 00:09:10;;;;;;;;;;;-4.30;99.90;;;;;;5027860;28;20044;-63
2022/12/16 00:11:35;;;;;;;;;;;-4.30;99.90;;;;;;5026905;28;19921;-63
2022/12/16 00:14:01;;;;;;;;;;;-4.30;99.90;;;;;;5020974;28;19952;-64
2022/12/16 00:16:28;;;;;;;;;;;-4.30;99.90;;;;;;5027066;28;19928;-64
2022/12/16 00:18:54;;;;;;;;;;;-4.30;99.90;;;;;;5028016;28;19916;-64
2022/12/16 00:21:22;;;;;;;;;;;-4.40;99.90;;;;;;5026751;28;19913;-66
2022/12/16 00:23:47;;;;;;;;;;;-4.30;99.90;;;;;;5028805;28;19917;-63
2022/12/16 00:26:13;;;;;;;;;;;-4.40;99.90;;;;;;5025196;28;20353;-64
2022/12/16 00:28:42;;;;;;;;;;;-4.40;99.90;;;;;;5029307;28;20003;-64
2022/12/16 00:31:08;;;;;;;;;;;-4.40;99.90;;;;;;5024784;28;19924;-63
2022/12/16 00:33:33;;;;;;;;;;;-4.50;99.90;;;;;;5028200;28;19913;-64
2022/12/16 00:35:59;;;;;;;;;;;-4.50;99.90;;;;;;5010447;28;19971;-63
2022/12/16 00:38:25;;;;;;;;;;;-4.60;99.90;;;;;;5024780;28;20343;-63
2022/12/16 00:40:51;;;;;;;;;;;-4.60;99.90;;;;;;5027963;28;19975;-63
2022/12/16 00:43:16;;;;;;;;;;;-4.60;99.90;;;;;;5029204;28;19919;-63
2022/12/16 00:45:42;;;;;;;;;;;-4.60;99.90;;;;;;5023815;28;19913;-63
2022/12/16 00:48:08;;;;;;;;;;;-4.60;99.90;;;;;;5010175;28;20077;-62
2022/12/16 00:50:33;;;;;;;;;;;-4.60;99.90;;;;;;5009907;28;20220;-63
2022/12/16 00:52:59;;;;;;;;;;;-4.70;99.90;;;;;;5008983;28;20623;-63
2022/12/16 00:55:25;;;;;;;;;;;-4.70;99.90;;;;;;5024356;28;19921;-63
2022/12/16 00:57:50;;;;;;;;;;;-4.70;99.90;;;;;;5025503;28;20469;-63
2022/12/16 01:00:17;;;;;;;;;;;-4.70;99.90;;;;;;5012100;28;20016;-63
2022/12/16 01:02:44;;;;;;;;;;;-4.70;99.90;;;;;;5027576;28;19917;-64
2022/12/16 01:05:10;;;;;;;;;;;-4.70;99.90;;;;;;4992757;28;20000;-64
2022/12/16 01:07:36;;;;;;;;;;;-4.80;99.90;;;;;;4992521;28;19957;-64
2022/12/16 01:10:02;;;;;;;;;;;-4.80;99.90;;;;;;5009158;28;19956;-64
2022/12/16 01:12:27;;;;;;;;;;;-4.80;99.90;;;;;;5012467;28;20255;-64
2022/12/16 01:14:54;;;;;;;;;;;-4.90;99.90;;;;;;5010380;28;19913;-63
2022/12/16 01:17:20;;;;;;;;;;;-4.90;99.90;;;;;;5011416;28;19971;-64
2022/12/16 01:19:45;;;;;;;;;;;-4.90;99.90;;;;;;5028233;28;19948;-64
2022/12/16 01:22:11;;;;;;;;;;;-4.90;99.90;;;;;;5028401;28;19952;-64
2022/12/16 01:24:37;;;;;;;;;;;-5.00;99.90;;;;;;5007951;28;19913;-64
2022/12/16 01:27:02;;;;;;;;;;;-5.00;99.90;;;;;;5008457;28;19972;-64
2022/12/16 01:29:28;;;;;;;;;;;-5.00;99.90;;;;;;5009193;28;19987;-64
2022/12/16 01:31:53;;;;;;;;;;;-5.00;99.90;;;;;;5020120;28;19923;-64
2022/12/16 01:34:19;;;;;;;;;;;-5.10;99.90;;;;;;4999797;28;20008;-64
2022/12/16 01:36:45;;;;;;;;;;;-5.10;99.90;;;;;;5009459;28;20554;-64
2022/12/16 01:39:10;;;;;;;;;;;-5.10;99.90;;;;;;5009268;28;20274;-63
2022/12/16 01:41:36;;;;;;;;;;;-5.00;99.90;;;;;;5008611;28;20378;-63
2022/12/16 01:44:12;;;;;;;;;;;-5.10;99.90;;;;;;5008956;28;20065;-64
2022/12/16 01:46:37;;;;;;;;;;;-5.10;99.90;;;;;;5016682;28;20382;-64
2022/12/16 01:49:05;;;;;;;;;;;-5.10;99.90;;;;;;5029525;28;19913;-63
2022/12/16 01:51:33;;;;;;;;;;;-5.10;99.90;;;;;;5028593;28;19925;-63
2022/12/16 01:54:08;;;;;;;;;;;-5.00;99.90;;;;;;5028457;28;19923;-63
2022/12/16 01:56:34;;;;;;;;;;;-5.00;99.90;;;;;;5030343;28;19917;-64
2022/12/16 01:59:00;;;;;;;;;;;-5.00;99.90;;;;;;5015962;28;20007;-64
2022/12/16 02:01:25;;;;;;;;;;;-4.90;99.90;;;;;;5027187;28;19932;-63
2022/12/16 02:03:51;;;;;;;;;;;-4.90;99.90;;;;;;5011849;28;20599;-64
2022/12/16 02:06:17;;;;;;;;;;;-4.90;99.90;;;;;;5012418;28;19940;-64
2022/12/16 02:08:44;;;;;;;;;;;-4.90;99.90;;;;;;5012479;28;19949;-63
2022/12/16 02:11:20;;;;;;;;;;;-5.00;99.90;;;;;;4996054;28;19949;-64
2022/12/16 02:13:57;;;;;;;;;;;-5.00;99.90;;;;;;5011977;28;19952;-64
2022/12/16 02:16:26;;;;;;;;;;;-5.10;99.90;;;;;;5012393;28;19917;-63
2022/12/16 02:18:54;;;;;;;;;;;-5.20;99.90;;;;;;4979679;28;20468;-64
2022/12/16 02:21:39;;;;;;;;;;;-5.20;99.90;;;;;;4995173;28;20616;-63
2022/12/16 02:24:23;;;;;;;;;;;-5.20;99.90;;;;;;5012857;28;19914;-63
2022/12/16 02:27:00;;;;;;;;;;;-5.20;99.90;;;;;;5012583;28;19917;-64
2022/12/16 02:29:41;;;;;;;;;;;-5.20;99.90;;;;;;5030613;28;20350;-64
2022/12/16 02:32:13;;;;;;;;;;;-5.20;99.90;;;;;;5031049;28;20263;-64
2022/12/16 02:34:45;;;;;;;;;;;-5.20;99.90;;;;;;5018325;28;19918;-64
2022/12/16 02:37:10;;;;;;;;;;;-5.20;99.90;;;;;;5026144;28;20261;-64
2022/12/16 02:39:37;;;;;;;;;;;-5.30;99.90;;;;;;5030308;28;19939;-63
2022/12/16 02:42:09;;;;;;;;;;;-5.30;99.90;;;;;;5027237;28;20403;-64
2022/12/16 02:44:35;;;;;;;;;;;-5.30;99.90;;;;;;5024757;28;20025;-64
2022/12/16 02:47:01;;;;;;;;;;;-5.30;99.90;;;;;;5027896;28;20330;-63
2022/12/16 02:49:27;;;;;;;;;;;-5.20;99.90;;;;;;5028127;28;19923;-64
2022/12/16 02:51:54;;;;;;;;;;;-5.20;99.90;;;;;;5030772;28;19921;-63
2022/12/16 02:54:21;;;;;;;;;;;-5.20;99.90;;;;;;5008017;28;19921;-63
2022/12/16 02:56:58;;;;;;;;;;;-5.30;99.90;;;;;;5015544;28;20072;-63
2022/12/16 02:59:33;;;;;;;;;;;-5.40;99.90;;;;;;5016927;28;19912;-64
2022/12/16 03:02:03;;;;;;;;;;;-5.40;99.90;;;;;;5024914;28;19952;-65
2022/12/16 03:04:42;;;;;;;;;;;-5.50;99.90;;;;;;5028635;28;20005;-63
2022/12/16 03:07:09;;;;;;;;;;;-5.40;99.90;;;;;;5030649;28;19913;-64
2022/12/16 03:09:35;;;;;;;;;;;-5.50;99.90;;;;;;4999714;28;20326;-64
2022/12/16 03:12:02;;;;;;;;;;;-5.60;99.90;;;;;;5010972;28;19953;-64
2022/12/16 03:14:28;;;;;;;;;;;-5.60;99.90;;;;;;5010880;28;19913;-64
2022/12/16 03:16:53;;;;;;;;;;;-5.70;99.90;;;;;;5010753;28;19948;-64
2022/12/16 03:19:19;;;;;;;;;;;-5.70;99.90;;;;;;5011920;28;19971;-64
2022/12/16 03:21:56;;;;;;;;;;;-5.60;99.90;;;;;;5027193;28;19913;-64
2022/12/16 03:24:21;;;;;;;;;;;-5.70;99.90;;;;;;5028909;28;19920;-63
2022/12/16 03:27:07;;;;;;;;;;;-5.70;99.90;;;;;;5018886;28;19932;-64
2022/12/16 03:29:48;;;;;;;;;;;-5.80;99.90;;;;;;5010636;28;19923;-65
2022/12/16 03:32:16;;;;;;;;;;;-5.80;99.90;;;;;;5030668;28;20610;-64
2022/12/16 03:34:47;;;;;;;;;;;-5.80;99.90;;;;;;5010639;28;19987;-65
2022/12/16 03:37:13;;;;;;;;;;;-5.80;99.90;;;;;;5030062;28;19936;-63
2022/12/16 03:39:46;;;;;;;;;;;-5.80;99.90;;;;;;5029780;28;19920;-64
2022/12/16 03:42:12;;;;;;;;;;;-5.80;99.90;;;;;;5023165;28;19913;-64
2022/12/16 03:44:38;;;;;;;;;;;-5.90;99.90;;;;;;5010697;28;19952;-64
2022/12/16 03:47:04;;;;;;;;;;;-5.90;99.90;;;;;;4994424;28;20006;-64
2022/12/16 03:49:29;;;;;;;;;;;-5.90;99.90;;;;;;5002762;28;19912;-64
2022/12/16 03:51:55;;;;;;;;;;;-5.90;99.90;;;;;;5050662;28;19999;-64
2022/12/16 03:54:21;;;;;;;;;;;-5.90;99.90;;;;;;5036730;28;19913;-64
2022/12/16 03:56:47;;;;;;;;;;;-5.90;99.90;;;;;;4996649;28;19960;-65
2022/12/16 03:59:13;;;;;;;;;;;-6.00;99.90;;;;;;5020381;28;19941;-64
2022/12/16 04:01:39;;;;;;;;;;;-6.00;99.90;;;;;;5010572;28;20661;-64
2022/12/16 04:04:05;;;;;;;;;;;-6.00;99.90;;;;;;5011260;28;19918;-64
2022/12/16 04:06:30;;;;;;;;;;;-6.00;99.90;;;;;;5015302;28;19913;-64
2022/12/16 04:08:56;;;;;;;;;;;-6.10;99.90;;;;;;5011253;28;19952;-64
2022/12/16 04:25:06;;;;;;;;;;;-6.20;99.90;;;;;;5010984;28;19921;-63
2022/12/16 04:27:32;;;;;;;;;;;-6.20;99.90;;;;;;5009365;28;19913;-63
